createdAt,value
2023-05-14T00:01:14.553Z,101622.29
2023-05-14T00:06:36.850Z,101622.29
2023-05-14T00:11:59.215Z,101622.43
2023-05-14T00:17:21.561Z,101611.19
2023-05-14T00:22:44.457Z,101614.17
2023-05-14T00:28:07.533Z,101610.01
2023-05-14T00:33:30.294Z,101609.39
2023-05-14T00:38:52.655Z,101619.52
2023-05-14T00:44:14.960Z,101613.97
2023-05-14T00:49:39.219Z,101603.11
2023-05-14T00:55:02.092Z,101601.86
2023-05-14T01:00:25.986Z,101606.55
2023-05-14T01:06:18.295Z,101603.37
2023-05-14T01:12:06.545Z,101600.20
2023-05-14T01:17:33.474Z,101601.20
2023-05-14T01:22:56.348Z,101600.64
2023-05-14T01:28:30.163Z,101604.83
2023-05-14T01:33:54.592Z,101616.14
2023-05-14T01:39:18.582Z,101611.98
2023-05-14T01:44:41.331Z,101600.58
2023-05-14T01:50:03.754Z,101589.86
2023-05-14T01:55:26.673Z,101591.53
2023-05-14T02:00:49.838Z,101583.75
2023-05-14T02:06:12.203Z,101582.22
2023-05-14T02:11:34.456Z,101576.00
2023-05-14T02:16:57.107Z,101587.05
2023-05-14T02:22:19.426Z,101581.88
2023-05-14T02:27:41.694Z,101578.48
2023-05-14T02:33:04.099Z,101579.14
2023-05-14T02:38:27.220Z,101571.84
2023-05-14T02:43:49.493Z,101565.29
2023-05-14T02:49:11.836Z,101563.25
2023-05-14T02:54:34.157Z,101569.38
2023-05-14T02:59:56.568Z,101558.64
2023-05-14T03:05:19.490Z,101562.00
2023-05-14T03:10:41.903Z,101561.42
2023-05-14T03:16:04.692Z,101560.91
2023-05-14T03:21:27.614Z,101566.57
2023-05-14T03:26:49.902Z,101564.84
2023-05-14T03:32:12.918Z,101564.75
2023-05-14T03:37:35.203Z,101561.97
2023-05-14T03:42:57.594Z,101564.91
2023-05-14T03:48:20.214Z,101553.31
2023-05-14T03:53:42.829Z,101553.62
2023-05-14T03:59:05.564Z,101554.67
2023-05-14T04:04:27.838Z,101547.32
2023-05-14T04:09:50.152Z,101549.34
2023-05-14T04:15:13.582Z,101550.78
2023-05-14T04:20:35.996Z,101543.53
2023-05-14T04:25:58.330Z,101536.50
2023-05-14T04:31:20.813Z,101538.77
2023-05-14T04:36:43.145Z,101533.42
2023-05-14T04:42:05.453Z,101543.94
2023-05-14T04:47:27.837Z,101542.03
2023-05-14T04:52:51.092Z,101539.71
2023-05-14T04:58:13.517Z,101535.23
2023-05-14T05:03:35.897Z,101540.33
2023-05-14T05:08:59.072Z,101537.78
2023-05-14T05:14:22.198Z,101534.22
2023-05-14T05:19:44.785Z,101527.52
2023-05-14T05:25:08.839Z,101523.39
2023-05-14T05:30:31.935Z,101516.98
2023-05-14T05:35:54.305Z,101525.25
2023-05-14T05:41:16.626Z,101524.80
2023-05-14T05:46:38.951Z,101516.28
2023-05-14T05:52:01.582Z,101514.43
2023-05-14T05:57:26.287Z,101509.92
2023-05-14T06:02:48.259Z,101510.02
2023-05-14T06:08:10.968Z,101504.44
2023-05-14T06:13:33.790Z,101504.80
2023-05-14T06:18:56.274Z,101504.72
2023-05-14T06:24:20.661Z,101496.02
2023-05-14T06:29:43.054Z,101500.55
2023-05-14T06:35:05.341Z,101492.46
2023-05-14T06:40:27.898Z,101495.84
2023-05-14T06:45:50.190Z,101496.79
2023-05-14T06:51:13.519Z,101494.98
2023-05-14T06:56:35.746Z,101505.46
2023-05-14T07:01:58.110Z,101507.40
2023-05-14T07:07:21.502Z,101491.48
2023-05-14T07:12:44.375Z,101487.89
2023-05-14T07:18:06.716Z,101489.95
2023-05-14T07:23:29.081Z,101487.37
2023-05-14T07:28:52.468Z,101474.84
2023-05-14T07:34:14.816Z,101480.72
2023-05-14T07:39:37.270Z,101472.08
2023-05-14T07:45:00.685Z,101462.62
2023-05-14T07:50:24.710Z,101451.89
2023-05-14T07:55:48.922Z,101445.88
2023-05-14T08:01:11.965Z,101438.19
2023-05-14T08:06:34.299Z,101432.80
2023-05-14T08:11:56.510Z,101430.85
2023-05-14T08:17:19.522Z,101421.90
2023-05-14T08:22:41.881Z,101409.86
2023-05-14T08:28:04.115Z,101413.95
2023-05-14T08:33:26.350Z,101404.16
2023-05-14T08:38:50.236Z,101399.79
2023-05-14T08:44:40.446Z,101388.62
2023-05-14T08:50:12.160Z,101382.42
2023-05-14T08:55:35.026Z,101379.95
2023-05-14T09:00:57.328Z,101382.53
2023-05-14T09:06:20.320Z,101377.23
2023-05-14T09:11:44.333Z,101357.73
2023-05-14T09:17:08.464Z,101358.53
2023-05-14T09:22:34.894Z,101348.05
2023-05-14T09:27:59.156Z,101351.94
2023-05-14T09:33:21.651Z,101347.23
2023-05-14T09:38:45.960Z,101344.33
2023-05-14T09:44:09.024Z,101329.85
2023-05-14T09:49:31.857Z,101331.59
2023-05-14T09:54:54.724Z,101317.61
2023-05-14T10:00:17.518Z,101304.36
2023-05-14T10:05:44.319Z,101318.29
2023-05-14T10:11:12.917Z,101312.98
2023-05-14T10:16:52.435Z,101292.19
2023-05-14T10:22:18.250Z,101280.21
2023-05-14T10:27:41.025Z,101285.59
2023-05-14T10:33:16.974Z,101274.22
2023-05-14T10:38:47.760Z,101268.86
2023-05-14T10:44:11.920Z,101264.41
2023-05-14T10:49:42.892Z,101253.91
2023-05-14T10:55:10.569Z,101252.20
2023-05-14T11:00:35.092Z,101237.73
2023-05-14T11:05:58.974Z,101241.70
2023-05-14T11:11:22.358Z,101230.72
2023-05-14T11:16:46.927Z,101227.88
2023-05-14T11:22:09.225Z,101229.42
2023-05-14T11:27:32.482Z,101223.02
2023-05-14T11:32:58.256Z,101217.95
2023-05-14T11:38:24.593Z,101207.23
2023-05-14T11:43:48.536Z,101203.63
2023-05-14T11:49:11.632Z,101197.31
2023-05-14T11:54:34.304Z,101192.77
2023-05-14T11:59:59.612Z,101191.59
2023-05-14T12:05:23.617Z,101179.25
2023-05-14T12:10:50.118Z,101168.84
2023-05-14T12:16:17.952Z,101153.69
2023-05-14T12:21:41.011Z,101149.59
2023-05-14T12:27:07.284Z,101147.20
2023-05-14T12:32:31.847Z,101143.89
2023-05-14T12:37:54.599Z,101143.91
2023-05-14T12:43:16.858Z,101137.89
2023-05-14T12:48:39.168Z,101137.75
2023-05-14T12:54:01.568Z,101126.62
2023-05-14T12:59:24.353Z,101123.28
2023-05-14T13:04:46.662Z,101128.81
2023-05-14T13:10:09.122Z,101114.47
2023-05-14T13:15:32.988Z,101105.63
2023-05-14T13:20:55.400Z,101107.20
2023-05-14T13:26:18.081Z,101095.28
2023-05-14T13:31:40.864Z,101091.08
2023-05-14T13:37:03.187Z,101085.36
2023-05-14T13:42:25.413Z,101084.95
2023-05-14T13:47:48.771Z,101074.08
2023-05-14T13:53:11.647Z,101068.82
2023-05-14T13:58:34.288Z,101075.70
2023-05-14T14:03:56.549Z,101057.73
2023-05-14T14:09:18.791Z,101059.25
2023-05-14T14:14:41.386Z,101054.84
2023-05-14T14:20:05.289Z,101047.09
2023-05-14T14:25:27.766Z,101042.62
2023-05-14T14:30:51.251Z,101037.74
2023-05-14T14:36:13.779Z,101034.02
2023-05-14T14:41:36.293Z,101023.77
2023-05-14T14:46:58.894Z,101015.97
2023-05-14T14:52:21.196Z,101013.19
2023-05-14T14:57:43.524Z,101018.73
2023-05-14T15:03:05.883Z,101005.80
2023-05-14T15:08:32.445Z,100998.97
2023-05-14T15:13:54.689Z,101008.80
2023-05-14T15:19:17.458Z,101002.64
2023-05-14T15:24:40.068Z,100992.40
2023-05-14T15:30:02.568Z,100984.06
2023-05-14T15:35:26.471Z,100983.02
2023-05-14T15:40:50.669Z,100976.95
2023-05-14T15:46:13.146Z,100983.27
2023-05-14T15:51:35.642Z,100972.00
2023-05-14T15:56:58.118Z,100963.13
2023-05-14T16:02:22.038Z,100952.60
2023-05-14T16:07:44.437Z,100945.69
2023-05-14T16:13:06.761Z,100943.56
2023-05-14T16:18:30.018Z,100943.33
2023-05-14T16:23:52.387Z,100940.55
2023-05-14T16:29:14.734Z,100934.48
2023-05-14T16:34:37.014Z,100926.42
2023-05-14T16:40:00.306Z,100926.61
2023-05-14T16:45:23.303Z,100922.02
2023-05-14T16:50:46.326Z,100921.36
2023-05-14T16:56:08.606Z,100915.48
2023-05-14T17:01:30.987Z,100916.01
2023-05-14T17:06:53.713Z,100920.02
2023-05-14T17:12:16.293Z,100919.59
2023-05-14T17:17:38.731Z,100915.02
2023-05-14T17:23:01.178Z,100917.51
2023-05-14T17:28:24.859Z,100908.32
2023-05-14T17:33:47.348Z,100912.31
2023-05-14T17:39:09.706Z,100913.08
2023-05-14T17:44:32.429Z,100908.54
2023-05-14T17:49:54.779Z,100908.28
2023-05-14T17:55:18.018Z,100909.14
2023-05-14T18:00:41.582Z,100913.41
2023-05-14T18:06:05.074Z,100910.17
2023-05-14T18:11:29.080Z,100915.28
2023-05-14T18:16:51.814Z,100913.70
2023-05-14T18:22:14.178Z,100911.23
2023-05-14T18:27:38.257Z,100908.31
2023-05-14T18:33:01.340Z,100907.22
2023-05-14T18:38:23.982Z,100898.09
2023-05-14T18:43:46.460Z,100906.98
2023-05-14T18:49:09.140Z,100903.86
2023-05-14T18:54:31.441Z,100905.36
2023-05-14T18:59:53.722Z,100904.92
2023-05-14T19:05:16.196Z,100901.97
2023-05-14T19:10:38.644Z,100914.23
2023-05-14T19:16:01.698Z,100907.34
2023-05-14T19:21:24.180Z,100912.91
2023-05-14T19:26:47.417Z,100911.25
2023-05-14T19:32:10.269Z,100913.06
2023-05-14T19:37:32.846Z,100913.68
2023-05-14T19:42:55.557Z,100912.88
2023-05-14T19:48:21.415Z,100906.79
2023-05-14T19:53:43.766Z,100902.49
2023-05-14T19:59:06.121Z,100888.70
2023-05-14T20:04:28.557Z,100897.41
2023-05-14T20:09:51.303Z,100883.91
2023-05-14T20:15:13.991Z,100883.23
2023-05-14T20:20:36.900Z,100875.26
2023-05-14T20:26:01.432Z,100878.23
2023-05-14T20:31:24.487Z,100872.83
2023-05-14T20:36:46.933Z,100866.89
2023-05-14T20:42:09.461Z,100869.59
2023-05-14T20:47:34.101Z,100862.98
2023-05-14T20:52:57.253Z,100864.52
2023-05-14T20:58:20.698Z,100864.62
2023-05-14T21:03:44.030Z,100865.55
2023-05-14T21:09:06.833Z,100851.64
2023-05-14T21:14:29.309Z,100844.28
2023-05-14T21:19:52.519Z,100839.31
2023-05-14T21:25:15.169Z,100824.66
2023-05-14T21:30:37.717Z,100827.11
2023-05-14T21:36:00.479Z,100826.69
2023-05-14T21:41:23.073Z,100826.80
2023-05-14T21:46:45.885Z,100828.89
2023-05-14T21:52:08.166Z,100819.28
2023-05-14T21:57:34.130Z,100818.38
2023-05-14T22:02:54.885Z,100813.17
2023-05-14T22:08:18.391Z,100804.83
2023-05-14T22:13:41.608Z,100798.48
2023-05-14T22:19:05.344Z,100793.23
2023-05-14T22:24:28.017Z,100780.20
2023-05-14T22:29:50.542Z,100775.80
2023-05-14T22:35:13.044Z,100767.30
2023-05-14T22:40:35.554Z,100763.16
2023-05-14T22:45:59.488Z,100756.85
2023-05-14T22:51:22.228Z,100752.79
2023-05-14T22:56:44.756Z,100747.45
2023-05-14T23:02:07.317Z,100733.88
2023-05-14T23:07:29.917Z,100728.20
2023-05-14T23:12:52.921Z,100716.97
2023-05-14T23:18:15.526Z,100714.91
2023-05-14T23:23:38.013Z,100706.41
2023-05-14T23:29:00.309Z,100697.03
2023-05-14T23:34:22.634Z,100682.87
2023-05-14T23:39:45.310Z,100678.33
2023-05-14T23:45:07.699Z,100668.94
2023-05-14T23:50:30.431Z,100664.54
2023-05-14T23:55:53.871Z,100654.17
